Allendale, Indiana
Current Conditions -  °F | °C
As of 1:53 PM on Sunday 21 Dec 2014 (Local Time) from KHUF Reporting Station
Clear Clear  
Wind Chill: 33°   Ceiling: Unl
Heat Index: 37°   Visibility: 10mi
Dew Point: 29°   Wind: 5mph
Humidity: 73%   Direction: 150°SSE
Pressure: 30.18"   Gusts: NA
Location:  39.3587°N, 87.4056°W
Report Text: KHUF 211853Z 15004KT 10SM CLR 03/M02 A3018 RMK AO2 SLP227 T00281017
Loading
Personal Weather Stations






























Interactive Weather Map New forecast layout! Learn more

10-Day Weather Forecast

Advertisements
Track Severe Weather on mobile